Time;durP1;ratioP1;P1;durP2;ratioP2;P2;SDS_P1;SDS_P2;PMS_P1;PMS_P2;Temp;Humidity;BMP_temperature;BMP_pressure;BME280_temperature;BME280_humidity;BME280_pressure;Samples;Min_cycle;Max_cycle;Signal;HPM_P1;HPM_P2
2022/10/06 00:02:25;;;;;;;;;;;19.40;66.50;;;;;;5016588;28;19928;-80
2022/10/06 00:04:51;;;;;;;;;;;19.40;66.60;;;;;;5016104;28;20377;-80
2022/10/06 00:07:16;;;;;;;;;;;19.30;66.50;;;;;;5016083;28;19921;-80
2022/10/06 00:09:42;;;;;;;;;;;19.30;66.60;;;;;;5016366;28;19924;-80
2022/10/06 00:12:08;;;;;;;;;;;19.30;66.60;;;;;;5032974;28;19964;-80
2022/10/06 00:14:34;;;;;;;;;;;19.20;66.60;;;;;;5032529;28;19967;-80
2022/10/06 00:17:00;;;;;;;;;;;19.20;66.60;;;;;;5032872;28;19913;-81
2022/10/06 00:19:26;;;;;;;;;;;19.20;66.60;;;;;;5032578;28;19971;-81
2022/10/06 00:21:52;;;;;;;;;;;19.20;66.60;;;;;;5033870;28;19913;-81
2022/10/06 00:24:17;;;;;;;;;;;19.20;66.70;;;;;;5033797;28;19909;-81
2022/10/06 00:26:43;;;;;;;;;;;19.10;66.60;;;;;;5032669;28;19924;-81
2022/10/06 00:29:12;;;;;;;;;;;19.10;66.70;;;;;;4999770;28;20294;-81
2022/10/06 00:31:39;;;;;;;;;;;19.10;66.70;;;;;;5032631;28;19921;-80
2022/10/06 00:34:04;;;;;;;;;;;19.10;66.70;;;;;;5032569;28;20348;-80
2022/10/06 00:36:30;;;;;;;;;;;19.10;66.70;;;;;;5033437;28;19909;-80
2022/10/06 00:38:56;;;;;;;;;;;19.00;66.70;;;;;;5032413;28;20012;-81
2022/10/06 00:41:22;;;;;;;;;;;19.00;66.70;;;;;;5032566;28;20004;-80
2022/10/06 00:43:50;;;;;;;;;;;18.90;66.70;;;;;;5032399;28;19947;-81
2022/10/06 00:46:35;;;;;;;;;;;18.90;66.70;;;;;;5033533;28;19913;-80
2022/10/06 00:49:16;;;;;;;;;;;18.90;66.70;;;;;;5021653;28;20436;-80
2022/10/06 00:51:51;;;;;;;;;;;18.90;67.40;;;;;;5032176;28;19923;-80
2022/10/06 00:54:17;;;;;;;;;;;18.90;66.80;;;;;;5032508;28;20350;-80
2022/10/06 00:56:43;;;;;;;;;;;18.80;66.70;;;;;;5033069;28;19959;-80
2022/10/06 00:59:10;;;;;;;;;;;18.80;66.80;;;;;;5033160;28;19913;-81
2022/10/06 01:01:35;;;;;;;;;;;18.80;66.80;;;;;;5032302;28;20309;-81
2022/10/06 01:04:05;;;;;;;;;;;18.80;66.80;;;;;;5015542;28;19918;-80
2022/10/06 01:06:45;;;;;;;;;;;18.70;66.80;;;;;;5032960;28;19917;-80
2022/10/06 01:09:13;;;;;;;;;;;18.70;66.80;;;;;;5032707;28;19913;-80
2022/10/06 01:11:39;;;;;;;;;;;18.60;66.80;;;;;;5033964;28;19967;-81
2022/10/06 01:14:04;;;;;;;;;;;18.60;66.80;;;;;;5036115;28;19925;-81
2022/10/06 01:16:31;;;;;;;;;;;18.60;66.80;;;;;;5035629;28;19971;-81
2022/10/06 01:18:57;;;;;;;;;;;18.60;66.80;;;;;;5035636;28;19913;-80
2022/10/06 01:21:31;;;;;;;;;;;18.60;66.90;;;;;;5035820;28;20024;-81
2022/10/06 01:24:00;;;;;;;;;;;18.50;66.80;;;;;;5036437;28;19917;-81
2022/10/06 01:26:27;;;;;;;;;;;18.50;66.90;;;;;;5035555;28;19913;-81
2022/10/06 01:28:53;;;;;;;;;;;18.50;66.90;;;;;;5035753;28;19917;-80
2022/10/06 01:31:19;;;;;;;;;;;18.50;66.90;;;;;;5035250;28;19921;-80
2022/10/06 01:33:49;;;;;;;;;;;18.40;66.90;;;;;;5052095;28;20366;-80
2022/10/06 01:36:15;;;;;;;;;;;18.40;66.90;;;;;;5035457;28;20019;-80
2022/10/06 01:38:40;;;;;;;;;;;18.40;66.90;;;;;;5035693;28;20376;-80
2022/10/06 01:41:06;;;;;;;;;;;18.40;66.90;;;;;;5035607;28;19948;-81
2022/10/06 01:43:33;;;;;;;;;;;18.40;66.90;;;;;;5051912;28;20007;-80
2022/10/06 01:45:59;;;;;;;;;;;18.40;67.00;;;;;;5035188;28;20380;-81
2022/10/06 01:48:25;;;;;;;;;;;18.30;66.90;;;;;;5036533;28;19920;-80
2022/10/06 01:50:51;;;;;;;;;;;18.30;66.90;;;;;;5052048;28;19956;-81
2022/10/06 01:53:17;;;;;;;;;;;18.30;67.00;;;;;;5036351;28;19968;-81
2022/10/06 01:55:43;;;;;;;;;;;18.30;67.00;;;;;;5051900;28;19913;-80
2022/10/06 01:58:11;;;;;;;;;;;18.20;66.90;;;;;;5034987;28;19909;-81
2022/10/06 02:00:37;;;;;;;;;;;18.20;66.90;;;;;;5035685;28;19917;-80
2022/10/06 02:03:03;;;;;;;;;;;18.20;67.00;;;;;;5036221;28;19909;-81
2022/10/06 02:05:28;;;;;;;;;;;18.20;67.00;;;;;;5034600;28;19917;-80
2022/10/06 02:07:54;;;;;;;;;;;18.20;67.00;;;;;;5034872;28;20420;-80
2022/10/06 02:10:20;;;;;;;;;;;18.10;67.00;;;;;;5034995;28;20366;-80
2022/10/06 02:12:56;;;;;;;;;;;18.10;67.00;;;;;;5034587;28;19921;-80
2022/10/06 02:15:21;;;;;;;;;;;18.10;67.00;;;;;;5034967;28;20317;-81
2022/10/06 02:17:47;;;;;;;;;;;18.10;67.00;;;;;;5034897;28;19955;-81
2022/10/06 02:20:13;;;;;;;;;;;18.10;67.00;;;;;;5035364;28;19921;-80
2022/10/06 02:22:39;;;;;;;;;;;18.10;67.10;;;;;;5034405;28;19959;-80
2022/10/06 02:25:05;;;;;;;;;;;18.00;67.10;;;;;;5035230;28;19928;-80
2022/10/06 02:27:31;;;;;;;;;;;18.00;67.10;;;;;;5034660;28;20000;-81
2022/10/06 02:29:57;;;;;;;;;;;18.00;67.10;;;;;;5051154;28;19953;-80
2022/10/06 02:32:23;;;;;;;;;;;18.00;67.10;;;;;;5051245;28;20378;-81
2022/10/06 02:34:49;;;;;;;;;;;17.90;67.10;;;;;;5034060;28;20000;-79
2022/10/06 02:37:16;;;;;;;;;;;17.90;67.10;;;;;;5018020;28;19924;-81
2022/10/06 02:39:42;;;;;;;;;;;17.90;67.10;;;;;;5034241;28;19913;-80
2022/10/06 02:42:07;;;;;;;;;;;17.90;67.10;;;;;;5035440;28;19927;-80
2022/10/06 02:44:33;;;;;;;;;;;17.90;67.20;;;;;;5034554;28;20405;-80
2022/10/06 02:47:00;;;;;;;;;;;17.80;67.10;;;;;;5034457;28;19963;-80
2022/10/06 02:49:25;;;;;;;;;;;17.80;67.10;;;;;;5050611;28;20369;-81
2022/10/06 02:51:52;;;;;;;;;;;17.80;67.10;;;;;;5018355;28;19980;-80
2022/10/06 02:54:17;;;;;;;;;;;17.80;67.20;;;;;;5050454;28;19956;-80
2022/10/06 02:56:43;;;;;;;;;;;17.80;67.20;;;;;;5050578;28;19990;-80
2022/10/06 02:59:08;;;;;;;;;;;17.80;67.20;;;;;;5034095;28;19917;-81
2022/10/06 03:01:35;;;;;;;;;;;17.70;67.20;;;;;;5034023;28;19917;-81
2022/10/06 03:04:07;;;;;;;;;;;17.70;67.20;;;;;;5033942;28;19917;-81
2022/10/06 03:06:33;;;;;;;;;;;17.60;67.20;;;;;;5034719;28;19919;-80
2022/10/06 03:09:18;;;;;;;;;;;17.60;67.20;;;;;;5033538;28;19917;-81
2022/10/06 03:11:43;;;;;;;;;;;17.60;67.20;;;;;;5033663;28;19932;-81
2022/10/06 03:14:17;;;;;;;;;;;17.60;67.20;;;;;;5018405;28;19963;-80
2022/10/06 03:16:42;;;;;;;;;;;17.60;67.30;;;;;;5017159;28;19917;-81
2022/10/06 03:19:17;;;;;;;;;;;17.60;67.30;;;;;;5018513;28;20358;-81
2022/10/06 03:21:44;;;;;;;;;;;17.50;67.30;;;;;;5033524;28;20425;-80
2022/10/06 03:24:12;;;;;;;;;;;17.50;67.30;;;;;;5017129;28;19919;-80
2022/10/06 03:26:39;;;;;;;;;;;17.50;67.40;;;;;;5033106;28;19913;-81
2022/10/06 03:29:05;;;;;;;;;;;17.50;67.30;;;;;;5033000;28;19913;-80
2022/10/06 03:31:32;;;;;;;;;;;17.40;67.30;;;;;;5033875;28;19926;-80
2022/10/06 03:33:57;;;;;;;;;;;17.40;67.30;;;;;;5033495;28;19917;-81
2022/10/06 03:36:28;;;;;;;;;;;17.40;67.30;;;;;;5033422;28;19918;-81
2022/10/06 03:38:54;;;;;;;;;;;17.40;67.40;;;;;;5033124;28;19913;-80
2022/10/06 03:41:24;;;;;;;;;;;17.40;67.40;;;;;;5016959;28;19920;-81
2022/10/06 03:43:51;;;;;;;;;;;17.30;67.40;;;;;;5032979;28;20027;-80
2022/10/06 03:46:18;;;;;;;;;;;17.30;67.40;;;;;;5033033;28;19949;-81
2022/10/06 03:48:44;;;;;;;;;;;17.20;67.40;;;;;;5049619;28;20358;-81
2022/10/06 03:51:11;;;;;;;;;;;17.30;67.50;;;;;;5032585;28;19916;-81
2022/10/06 03:53:37;;;;;;;;;;;17.20;67.40;;;;;;5032995;28;20235;-81
2022/10/06 03:56:13;;;;;;;;;;;17.20;67.50;;;;;;5032878;28;19920;-81
2022/10/06 03:58:40;;;;;;;;;;;17.20;67.50;;;;;;5033249;28;19921;-81
2022/10/06 04:01:05;;;;;;;;;;;17.10;67.50;;;;;;5032815;28;20007;-81
2022/10/06 04:03:32;;;;;;;;;;;17.10;67.50;;;;;;5049325;28;19999;-81
2022/10/06 04:05:59;;;;;;;;;;;17.10;67.50;;;;;;5033345;28;19909;-81
2022/10/06 04:08:25;;;;;;;;;;;17.10;67.60;;;;;;5049880;28;20119;-81
2022/10/06 04:10:51;;;;;;;;;;;17.00;67.50;;;;;;5016425;28;20023;-81
2022/10/06 04:13:17;;;;;;;;;;;17.00;67.50;;;;;;5049096;28;20028;-82
2022/10/06 04:15:44;;;;;;;;;;;17.00;67.60;;;;;;5033731;28;20000;-81
2022/10/06 04:18:10;;;;;;;;;;;17.00;67.60;;;;;;5049313;28;19913;-80
2022/10/06 04:20:36;;;;;;;;;;;17.00;67.60;;;;;;5032607;28;19959;-81
2022/10/06 04:23:02;;;;;;;;;;;16.90;67.60;;;;;;5032462;28;20323;-81
2022/10/06 04:25:28;;;;;;;;;;;16.90;67.60;;;;;;5032589;28;19908;-81
2022/10/06 04:27:53;;;;;;;;;;;16.90;67.60;;;;;;5016140;28;19974;-82
2022/10/06 04:30:19;;;;;;;;;;;16.90;67.60;;;;;;5017795;28;20019;-82
2022/10/06 04:32:45;;;;;;;;;;;16.90;67.60;;;;;;5033692;28;19955;-83
2022/10/06 04:35:11;;;;;;;;;;;16.90;67.60;;;;;;5033924;28;19914;-81
2022/10/06 04:37:37;;;;;;;;;;;16.80;67.60;;;;;;5032784;28;19975;-81
2022/10/06 04:40:02;;;;;;;;;;;16.80;67.60;;;;;;5033166;28;19905;-80
2022/10/06 04:42:30;;;;;;;;;;;16.80;67.70;;;;;;5032877;28;19996;-80
2022/10/06 04:44:56;;;;;;;;;;;16.80;67.70;;;;;;5032337;28;19944;-80
2022/10/06 04:47:21;;;;;;;;;;;16.70;67.70;;;;;;5035803;28;19918;-80
2022/10/06 04:49:48;;;;;;;;;;;16.70;67.70;;;;;;5052765;28;19909;-80
2022/10/06 04:52:14;;;;;;;;;;;16.70;67.70;;;;;;5019829;28;20321;-80
2022/10/06 04:54:40;;;;;;;;;;;16.70;67.70;;;;;;5035887;28;19919;-80
2022/10/06 04:57:07;;;;;;;;;;;16.70;67.80;;;;;;5036011;28;19952;-80
2022/10/06 05:02:19;;;;;;;;;;;16.60;67.70;;;;;;5037104;28;19913;-80
2022/10/06 05:04:47;;;;;;;;;;;16.60;67.80;;;;;;5035777;28;19913;-79
2022/10/06 05:07:14;;;;;;;;;;;16.60;67.80;;;;;;5053176;28;19913;-80
2022/10/06 05:09:40;;;;;;;;;;;16.50;67.90;;;;;;5036133;28;19917;-80
2022/10/06 05:12:10;;;;;;;;;;;16.50;67.80;;;;;;5036022;28;19924;-80
2022/10/06 05:14:36;;;;;;;;;;;16.50;67.80;;;;;;5035759;28;20384;-80
2022/10/06 05:17:02;;;;;;;;;;;16.50;67.80;;;;;;5020229;28;19968;-80
2022/10/06 05:19:29;;;;;;;;;;;16.50;67.90;;;;;;5036603;28;19917;-80
2022/10/06 05:21:55;;;;;;;;;;;16.50;67.90;;;;;;5035612;28;19920;-81
2022/10/06 05:24:24;;;;;;;;;;;16.40;67.80;;;;;;5035696;28;19911;-80
2022/10/06 05:26:50;;;;;;;;;;;16.40;67.90;;;;;;5035891;28;20339;-80
2022/10/06 05:29:15;;;;;;;;;;;16.40;67.90;;;;;;5035484;28;20011;-80
2022/10/06 05:31:43;;;;;;;;;;;16.40;67.90;;;;;;5019007;28;20012;-80
2022/10/06 05:34:10;;;;;;;;;;;16.30;67.80;;;;;;5020223;28;19917;-80
2022/10/06 05:36:36;;;;;;;;;;;16.30;67.90;;;;;;5035672;28;19909;-80
2022/10/06 05:39:04;;;;;;;;;;;16.30;67.90;;;;;;5035369;28;19919;-79
2022/10/06 05:41:37;;;;;;;;;;;16.30;67.90;;;;;;5036018;28;19955;-80
2022/10/06 05:44:05;;;;;;;;;;;16.30;68.00;;;;;;5035316;28;19967;-80
2022/10/06 05:46:33;;;;;;;;;;;16.30;68.00;;;;;;5035679;28;19917;-78
2022/10/06 05:49:03;;;;;;;;;;;16.20;68.00;;;;;;5019063;28;20335;-80
2022/10/06 05:51:31;;;;;;;;;;;16.20;68.00;;;;;;5034979;28;19925;-80
2022/10/06 05:53:59;;;;;;;;;;;16.20;68.00;;;;;;5052038;28;19913;-80
2022/10/06 05:56:24;;;;;;;;;;;16.20;68.00;;;;;;5051118;28;19914;-80
2022/10/06 05:58:51;;;;;;;;;;;16.20;68.00;;;;;;5051609;28;19910;-80
2022/10/06 06:01:18;;;;;;;;;;;16.10;68.00;;;;;;5035111;28;20269;-80
2022/10/06 06:03:48;;;;;;;;;;;16.10;68.00;;;;;;5034994;28;20480;-80
2022/10/06 06:06:18;;;;;;;;;;;16.10;68.00;;;;;;5035198;28;19913;-80
2022/10/06 06:08:44;;;;;;;;;;;16.10;68.10;;;;;;5051930;28;20270;-80
2022/10/06 06:11:10;;;;;;;;;;;16.10;68.10;;;;;;5034809;28;19916;-80
2022/10/06 06:13:36;;;;;;;;;;;16.10;68.10;;;;;;5034830;28;19913;-80
2022/10/06 06:16:10;;;;;;;;;;;16.00;68.10;;;;;;5034742;28;19914;-79
2022/10/06 06:18:36;;;;;;;;;;;16.00;68.10;;;;;;5034740;28;19909;-80
2022/10/06 06:21:05;;;;;;;;;;;16.00;68.10;;;;;;5034142;28;19913;-80
2022/10/06 06:23:35;;;;;;;;;;;16.00;68.10;;;;;;5034656;28;19913;-80
2022/10/06 06:26:02;;;;;;;;;;;16.00;68.10;;;;;;5034254;28;19959;-81
2022/10/06 06:28:28;;;;;;;;;;;15.90;68.10;;;;;;5034516;28;20354;-81
2022/10/06 06:31:01;;;;;;;;;;;15.90;68.10;;;;;;5033961;28;19971;-80
2022/10/06 06:33:29;;;;;;;;;;;15.90;68.20;;;;;;5035136;28;19960;-81
2022/10/06 06:35:54;;;;;;;;;;;15.90;68.20;;;;;;5034342;28;19959;-80
2022/10/06 06:38:20;;;;;;;;;;;15.90;68.20;;;;;;5034009;28;20270;-80
2022/10/06 06:40:46;;;;;;;;;;;15.90;68.20;;;;;;5018659;28;19913;-81
2022/10/06 06:43:13;;;;;;;;;;;15.80;68.20;;;;;;5035064;28;19925;-80
2022/10/06 06:46:00;;;;;;;;;;;15.80;68.20;;;;;;5034023;28;19913;-80
2022/10/06 06:48:44;;;;;;;;;;;15.80;68.20;;;;;;5051607;28;20356;-80
2022/10/06 06:51:10;;;;;;;;;;;15.80;68.20;;;;;;5034047;28;19917;-80
2022/10/06 06:53:37;;;;;;;;;;;15.80;68.30;;;;;;5034467;28;20244;-81
2022/10/06 06:56:03;;;;;;;;;;;15.70;68.20;;;;;;5050620;28;19931;-81
2022/10/06 06:58:31;;;;;;;;;;;15.70;68.20;;;;;;5034176;28;19909;-81
2022/10/06 07:01:03;;;;;;;;;;;15.70;68.30;;;;;;5033933;28;20328;-80
2022/10/06 07:03:29;;;;;;;;;;;15.70;68.30;;;;;;5034762;28;20432;-80
2022/10/06 07:06:07;;;;;;;;;;;15.70;68.30;;;;;;5033923;28;19956;-80
2022/10/06 07:08:37;;;;;;;;;;;15.70;68.30;;;;;;5049356;28;19967;-80
2022/10/06 07:11:16;;;;;;;;;;;15.70;69.00;;;;;;5033961;28;19913;-81
2022/10/06 07:13:44;;;;;;;;;;;15.70;68.30;;;;;;5034904;28;19925;-81
2022/10/06 07:27:07;;;;;;;;;;;15.60;68.40;;;;;;5050275;28;19962;-81
2022/10/06 07:29:33;;;;;;;;;;;15.60;68.40;;;;;;5033362;28;19913;-81
2022/10/06 07:31:59;;;;;;;;;;;15.60;68.50;;;;;;5033533;28;19933;-80
2022/10/06 07:34:25;;;;;;;;;;;15.60;68.50;;;;;;5016961;28;20103;-80
2022/10/06 07:36:52;;;;;;;;;;;15.60;68.50;;;;;;5033536;28;20320;-81
2022/10/06 07:39:19;;;;;;;;;;;15.60;68.50;;;;;;5034067;28;19983;-80
2022/10/06 07:41:45;;;;;;;;;;;15.60;68.50;;;;;;5050004;28;20371;-80
2022/10/06 07:44:11;;;;;;;;;;;15.60;68.50;;;;;;5017387;28;19920;-81
2022/10/06 07:46:37;;;;;;;;;;;15.60;68.50;;;;;;5033192;28;19921;-81
2022/10/06 07:49:08;;;;;;;;;;;15.60;68.50;;;;;;5049328;28;19963;-83
2022/10/06 07:51:34;;;;;;;;;;;15.60;68.50;;;;;;5033542;28;19971;-82
2022/10/06 07:54:01;;;;;;;;;;;15.60;68.50;;;;;;5017012;28;19959;-81
2022/10/06 07:56:35;;;;;;;;;;;15.60;68.50;;;;;;5033896;28;20382;-79
2022/10/06 07:59:01;;;;;;;;;;;15.60;68.50;;;;;;5016742;28;19924;-81
2022/10/06 08:01:28;;;;;;;;;;;15.60;68.50;;;;;;5016696;28;19913;-81
2022/10/06 08:03:54;;;;;;;;;;;15.60;68.50;;;;;;5032691;28;20013;-81
2022/10/06 08:06:22;;;;;;;;;;;15.60;68.50;;;;;;5049606;28;19956;-79
2022/10/06 08:08:48;;;;;;;;;;;15.60;68.60;;;;;;5032936;28;19917;-81
2022/10/06 08:11:13;;;;;;;;;;;15.60;68.50;;;;;;5016433;28;19920;-81
2022/10/06 08:13:41;;;;;;;;;;;15.60;68.60;;;;;;5032694;28;19936;-80
2022/10/06 08:16:10;;;;;;;;;;;15.60;68.60;;;;;;5033599;28;19917;-79
2022/10/06 08:18:37;;;;;;;;;;;15.60;68.60;;;;;;5049199;28;19920;-84
2022/10/06 08:21:08;;;;;;;;;;;15.50;68.50;;;;;;5033389;28;20354;-79
2022/10/06 08:23:38;;;;;;;;;;;15.60;68.60;;;;;;5032505;28;19914;-81
2022/10/06 08:26:03;;;;;;;;;;;15.60;68.60;;;;;;5033632;28;19917;-79
2022/10/06 08:28:29;;;;;;;;;;;15.60;68.60;;;;;;5033571;28;20326;-80
2022/10/06 08:30:55;;;;;;;;;;;15.60;68.60;;;;;;5032152;28;19929;-79
2022/10/06 08:33:21;;;;;;;;;;;15.60;68.60;;;;;;5032432;28;19925;-79
2022/10/06 08:35:47;;;;;;;;;;;15.60;68.60;;;;;;5033204;28;20398;-81
2022/10/06 08:38:13;;;;;;;;;;;15.60;68.60;;;;;;5032572;28;19913;-80
2022/10/06 08:40:41;;;;;;;;;;;15.60;68.60;;;;;;5033354;28;19975;-80
2022/10/06 08:43:13;;;;;;;;;;;15.60;68.60;;;;;;5032600;28;20012;-80
2022/10/06 08:45:42;;;;;;;;;;;15.60;68.60;;;;;;5033625;28;19913;-80
2022/10/06 08:48:12;;;;;;;;;;;15.60;68.60;;;;;;5032325;28;19976;-79
2022/10/06 08:50:46;;;;;;;;;;;15.70;68.70;;;;;;5031967;28;19924;-79
2022/10/06 08:53:12;;;;;;;;;;;15.70;68.60;;;;;;5049165;28;19921;-79
2022/10/06 08:55:41;;;;;;;;;;;15.70;68.60;;;;;;5049786;28;19932;-80
2022/10/06 08:58:28;;;;;;;;;;;15.70;68.60;;;;;;5033189;28;19913;-79
2022/10/06 09:00:55;;;;;;;;;;;15.80;68.70;;;;;;5033715;28;19913;-81
2022/10/06 09:03:24;;;;;;;;;;;15.80;68.60;;;;;;5033699;28;19921;-79
2022/10/06 09:05:51;;;;;;;;;;;15.80;68.60;;;;;;5032001;28;20352;-79
2022/10/06 09:08:23;;;;;;;;;;;15.80;68.60;;;;;;5032564;28;19909;-79
2022/10/06 09:11:04;;;;;;;;;;;15.90;68.60;;;;;;5048520;28;19913;-80
2022/10/06 09:13:34;;;;;;;;;;;15.90;68.50;;;;;;5033031;28;19928;-80
2022/10/06 09:16:06;;;;;;;;;;;16.00;68.50;;;;;;5033276;28;19913;-79
2022/10/06 09:18:41;;;;;;;;;;;16.00;68.50;;;;;;5033550;28;19964;-80
2022/10/06 09:21:29;;;;;;;;;;;16.00;68.50;;;;;;5048491;28;19913;-80
2022/10/06 09:23:58;;;;;;;;;;;16.10;68.50;;;;;;5027202;28;19985;-80
2022/10/06 09:26:28;;;;;;;;;;;16.10;69.10;;;;;;5031874;28;20369;-80
2022/10/06 09:28:54;;;;;;;;;;;16.20;68.40;;;;;;5031553;28;19920;-80
2022/10/06 09:31:21;;;;;;;;;;;16.20;68.40;;;;;;5031969;28;19921;-81
2022/10/06 09:33:48;;;;;;;;;;;16.30;68.40;;;;;;5052710;28;19939;-82
2022/10/06 09:36:14;;;;;;;;;;;16.30;68.30;;;;;;5035760;28;20043;-81
2022/10/06 09:38:52;;;;;;;;;;;16.40;68.20;;;;;;5035416;28;20393;-80
2022/10/06 09:41:27;;;;;;;;;;;16.40;68.20;;;;;;5035547;28;19913;-83
2022/10/06 09:43:55;;;;;;;;;;;16.50;68.20;;;;;;5035940;28;19913;-81
2022/10/06 09:46:29;;;;;;;;;;;16.50;68.10;;;;;;5036399;28;19916;-83
2022/10/06 09:49:13;;;;;;;;;;;16.60;68.10;;;;;;5035332;28;19909;-81
2022/10/06 09:51:39;;;;;;;;;;;16.70;68.00;;;;;;5051779;28;19921;-80
2022/10/06 09:54:14;;;;;;;;;;;16.70;68.00;;;;;;5036214;28;19924;-81
2022/10/06 09:56:42;;;;;;;;;;;16.80;68.00;;;;;;5051728;28;19920;-81
2022/10/06 09:59:22;;;;;;;;;;;16.90;67.90;;;;;;5036137;28;20401;-82
2022/10/06 10:01:55;;;;;;;;;;;17.00;68.00;;;;;;5051832;28;20000;-82
2022/10/06 10:04:22;;;;;;;;;;;17.00;68.00;;;;;;5035766;28;20378;-81
2022/10/06 10:06:48;;;;;;;;;;;17.10;67.90;;;;;;5034709;28;19916;-82
2022/10/06 10:09:18;;;;;;;;;;;17.20;67.90;;;;;;5018558;28;19917;-82
2022/10/06 10:14:34;;;;;;;;;;;17.30;67.80;;;;;;5035847;28;19925;-81
2022/10/06 10:17:06;;;;;;;;;;;17.40;67.80;;;;;;5035781;28;19949;-81
2022/10/06 10:19:35;;;;;;;;;;;17.50;67.80;;;;;;5034899;28;20404;-81
2022/10/06 10:22:01;;;;;;;;;;;17.50;68.30;;;;;;5034524;28;20004;-80
2022/10/06 10:24:40;;;;;;;;;;;17.60;67.70;;;;;;5018092;28;20285;-82
2022/10/06 10:27:12;;;;;;;;;;;17.60;67.60;;;;;;5034999;28;19917;-87
2022/10/06 10:29:44;;;;;;;;;;;17.80;67.70;;;;;;5035105;28;19913;-84
2022/10/06 10:32:19;;;;;;;;;;;17.80;67.60;;;;;;5050003;28;21319;-80
2022/10/06 10:34:50;;;;;;;;;;;17.80;67.60;;;;;;5034656;28;19920;-80
2022/10/06 10:37:20;;;;;;;;;;;17.90;67.60;;;;;;5035982;28;19917;-80
2022/10/06 10:39:51;;;;;;;;;;;18.00;67.70;;;;;;5034509;28;19913;-80
2022/10/06 10:42:37;;;;;;;;;;;18.00;67.60;;;;;;5034373;28;20408;-82
2022/10/06 10:45:06;;;;;;;;;;;18.10;67.70;;;;;;5035411;28;19913;-81
2022/10/06 10:47:34;;;;;;;;;;;18.20;67.80;;;;;;5035217;28;19913;-82
2022/10/06 10:50:15;;;;;;;;;;;18.20;67.80;;;;;;5051215;28;19916;-82
2022/10/06 10:52:42;;;;;;;;;;;18.20;67.80;;;;;;5050790;28;19921;-82
2022/10/06 10:55:20;;;;;;;;;;;18.30;67.90;;;;;;5018486;28;20008;-85
2022/10/06 10:57:47;;;;;;;;;;;18.30;67.90;;;;;;5050455;28;19913;-81
2022/10/06 11:00:16;;;;;;;;;;;18.30;68.00;;;;;;5034079;28;19909;-83
2022/10/06 11:02:42;;;;;;;;;;;18.40;68.10;;;;;;5034298;28;19928;-81
2022/10/06 11:05:16;;;;;;;;;;;18.40;68.10;;;;;;5017743;28;20239;-83
2022/10/06 11:08:01;;;;;;;;;;;18.40;68.10;;;;;;5033836;28;20010;-80
2022/10/06 11:10:33;;;;;;;;;;;18.50;68.20;;;;;;5033521;28;19913;-80
2022/10/06 11:13:16;;;;;;;;;;;18.50;68.30;;;;;;5034620;28;19921;-80
2022/10/06 11:15:52;;;;;;;;;;;18.60;68.40;;;;;;5033696;28;19979;-82
2022/10/06 11:18:28;;;;;;;;;;;18.60;68.40;;;;;;5050444;28;19913;-81
2022/10/06 11:20:54;;;;;;;;;;;18.60;68.40;;;;;;5050540;28;20263;-81
2022/10/06 11:23:27;;;;;;;;;;;18.70;68.50;;;;;;5050577;28;19916;-80
2022/10/06 11:25:56;;;;;;;;;;;18.70;69.10;;;;;;5050698;28;20096;-81
2022/10/06 11:28:23;;;;;;;;;;;18.70;68.50;;;;;;5034635;28;19916;-81
2022/10/06 11:30:49;;;;;;;;;;;18.70;68.50;;;;;;5034700;28;19921;-81
2022/10/06 11:33:26;;;;;;;;;;;18.80;68.50;;;;;;5049712;28;20089;-80
2022/10/06 11:35:52;;;;;;;;;;;18.80;68.50;;;;;;5033078;28;19920;-81
2022/10/06 11:38:28;;;;;;;;;;;18.80;68.50;;;;;;5033227;28;19909;-81
2022/10/06 11:41:12;;;;;;;;;;;18.80;68.50;;;;;;5033051;28;19935;-81
2022/10/06 11:43:50;;;;;;;;;;;18.90;68.50;;;;;;5033164;28;19913;-82
2022/10/06 11:46:28;;;;;;;;;;;18.90;68.60;;;;;;5050436;28;19917;-81
2022/10/06 11:49:13;;;;;;;;;;;18.90;68.50;;;;;;5034590;28;19916;-81
2022/10/06 11:51:39;;;;;;;;;;;18.90;68.50;;;;;;5049465;28;19995;-82
2022/10/06 11:54:24;;;;;;;;;;;19.00;68.60;;;;;;5049286;28;20385;-81
2022/10/06 11:56:50;;;;;;;;;;;19.00;68.60;;;;;;5032768;28;19913;-81
2022/10/06 11:59:23;;;;;;;;;;;19.00;68.60;;;;;;5033801;28;19919;-81
2022/10/06 12:01:49;;;;;;;;;;;19.00;68.60;;;;;;5049308;28;19920;-81
2022/10/06 12:04:16;;;;;;;;;;;19.10;68.60;;;;;;5033868;28;19920;-82
2022/10/06 12:06:44;;;;;;;;;;;19.00;68.50;;;;;;5049491;28;20362;-81
2022/10/06 12:09:31;;;;;;;;;;;19.10;68.50;;;;;;5032813;28;19928;-82
2022/10/06 12:12:05;;;;;;;;;;;19.10;68.50;;;;;;5049485;28;19968;-82
2022/10/06 12:14:50;;;;;;;;;;;19.10;68.50;;;;;;5032877;28;19913;-81
2022/10/06 12:17:24;;;;;;;;;;;19.10;68.50;;;;;;5049089;28;20261;-81
2022/10/06 12:19:57;;;;;;;;;;;19.20;68.50;;;;;;5049413;28;20376;-82
2022/10/06 12:22:33;;;;;;;;;;;19.20;68.40;;;;;;5033677;28;19913;-82
2022/10/06 12:25:04;;;;;;;;;;;19.20;68.40;;;;;;5033605;28;19920;-82
2022/10/06 12:27:48;;;;;;;;;;;19.20;68.40;;;;;;5032865;28;19919;-81
2022/10/06 12:30:19;;;;;;;;;;;19.20;68.30;;;;;;5049304;28;19925;-81
2022/10/06 12:32:53;;;;;;;;;;;19.20;68.30;;;;;;5049536;28;19964;-83
2022/10/06 12:35:24;;;;;;;;;;;19.20;68.30;;;;;;5033711;28;19913;-82
2022/10/06 12:37:52;;;;;;;;;;;19.30;68.30;;;;;;5034260;28;19983;-81
2022/10/06 12:40:36;;;;;;;;;;;19.20;68.30;;;;;;5033267;28;20355;-82
2022/10/06 12:43:17;;;;;;;;;;;19.20;68.20;;;;;;5049097;28;20011;-81
2022/10/06 12:45:45;;;;;;;;;;;19.30;68.20;;;;;;5034056;28;19914;-81
2022/10/06 12:48:20;;;;;;;;;;;19.20;68.20;;;;;;5032477;28;20000;-81
2022/10/06 12:50:47;;;;;;;;;;;19.30;68.20;;;;;;5048945;28;19917;-82
2022/10/06 12:53:18;;;;;;;;;;;19.30;68.20;;;;;;5032079;28;19917;-82
2022/10/06 12:55:50;;;;;;;;;;;19.30;68.20;;;;;;5048827;28;19913;-81
2022/10/06 12:58:24;;;;;;;;;;;19.30;68.10;;;;;;5033088;28;19975;-82
2022/10/06 13:00:50;;;;;;;;;;;19.30;68.10;;;;;;5032519;28;20405;-81
2022/10/06 13:03:18;;;;;;;;;;;19.30;68.10;;;;;;5032102;28;19910;-81
2022/10/06 13:05:48;;;;;;;;;;;19.30;68.00;;;;;;5031902;28;19913;-82
2022/10/06 13:08:22;;;;;;;;;;;19.40;68.10;;;;;;5035264;28;19964;-81
2022/10/06 13:10:48;;;;;;;;;;;19.40;68.10;;;;;;5036013;28;19919;-82
2022/10/06 13:13:22;;;;;;;;;;;19.40;68.00;;;;;;5035706;28;20413;-81
2022/10/06 13:15:47;;;;;;;;;;;19.40;68.00;;;;;;5037081;28;20435;-81
2022/10/06 13:18:14;;;;;;;;;;;19.40;68.00;;;;;;5018935;28;19964;-82
2022/10/06 13:20:50;;;;;;;;;;;19.40;68.00;;;;;;5037344;28;19920;-81
2022/10/06 13:23:15;;;;;;;;;;;19.40;68.00;;;;;;5052507;28;19920;-82
2022/10/06 13:25:46;;;;;;;;;;;19.50;68.00;;;;;;5037378;28;19951;-82
2022/10/06 13:28:22;;;;;;;;;;;19.40;68.00;;;;;;5036404;28;19913;-81
2022/10/06 13:30:59;;;;;;;;;;;19.50;68.00;;;;;;5051853;28;19967;-81
2022/10/06 13:33:30;;;;;;;;;;;19.50;68.00;;;;;;5035715;28;19921;-81
2022/10/06 13:35:56;;;;;;;;;;;19.50;68.00;;;;;;5035455;28;19917;-81
2022/10/06 13:38:22;;;;;;;;;;;19.50;68.00;;;;;;5036666;28;19913;-81
2022/10/06 13:41:06;;;;;;;;;;;19.50;68.00;;;;;;5036812;28;19940;-82
2022/10/06 13:43:36;;;;;;;;;;;19.50;67.90;;;;;;5036826;28;19967;-81
2022/10/06 13:46:06;;;;;;;;;;;19.60;68.00;;;;;;5035363;28;19913;-82
2022/10/06 13:48:31;;;;;;;;;;;19.60;68.00;;;;;;5036508;28;19916;-82
2022/10/06 13:50:57;;;;;;;;;;;19.60;67.90;;;;;;5035239;28;19917;-81
2022/10/06 13:53:30;;;;;;;;;;;19.60;67.90;;;;;;5051507;28;20016;-81
2022/10/06 13:55:56;;;;;;;;;;;19.60;67.90;;;;;;5051655;28;19919;-81
2022/10/06 13:58:25;;;;;;;;;;;19.60;67.90;;;;;;5035086;28;19917;-81
2022/10/06 14:00:54;;;;;;;;;;;19.60;67.90;;;;;;5036307;28;19913;-81
2022/10/06 14:03:22;;;;;;;;;;;19.60;67.90;;;;;;5036606;28;19963;-82
2022/10/06 14:05:48;;;;;;;;;;;19.70;67.90;;;;;;5035925;28;19959;-81
2022/10/06 14:08:25;;;;;;;;;;;19.70;67.90;;;;;;5036500;28;19913;-81
2022/10/06 14:10:59;;;;;;;;;;;19.70;67.90;;;;;;5035138;28;19913;-82
2022/10/06 14:13:38;;;;;;;;;;;19.70;67.90;;;;;;5035145;28;19956;-81
2022/10/06 14:16:05;;;;;;;;;;;19.70;67.90;;;;;;5034609;28;20006;-82
2022/10/06 14:18:41;;;;;;;;;;;19.70;67.90;;;;;;5035218;28;20353;-81
2022/10/06 14:21:25;;;;;;;;;;;19.70;67.80;;;;;;5035181;28;20000;-81
2022/10/06 14:23:52;;;;;;;;;;;19.70;67.80;;;;;;5034737;28;19987;-82
2022/10/06 14:26:21;;;;;;;;;;;19.70;67.80;;;;;;5035253;28;19913;-81
2022/10/06 14:28:50;;;;;;;;;;;19.70;67.80;;;;;;5034488;28;19951;-81
2022/10/06 14:31:16;;;;;;;;;;;19.70;67.80;;;;;;5035276;28;19931;-80
2022/10/06 14:33:41;;;;;;;;;;;19.70;67.80;;;;;;5034545;28;20320;-81
2022/10/06 14:36:13;;;;;;;;;;;19.70;67.70;;;;;;5034157;28;20361;-81
2022/10/06 14:38:38;;;;;;;;;;;19.70;67.70;;;;;;5050812;28;19939;-81
2022/10/06 14:41:04;;;;;;;;;;;19.70;67.60;;;;;;5033994;28;20429;-81
2022/10/06 14:43:30;;;;;;;;;;;19.70;67.60;;;;;;5035246;28;19952;-81
2022/10/06 14:45:56;;;;;;;;;;;19.70;67.60;;;;;;5018340;28;19932;-81